map of RAL home
RAL - Airport
Location
City:  Riverside, California, United States
Name:Riverside Municipal Airport
ICAO:KRAL
IATA:RAL
FAA LID:RAL

Details
Type:Airport (Airfield)
Use:Public/Civil
Latitude:33°57'07"N (33.951889)
Longitude:117°26'42"W (-117.445110)
Datum:WGS 1984
Elevation:818 ft (249 m)
Variation:11.81°E (WMM2015 magnetic declination)
-0.09° annual change
Runways:2
Longest:5401 × 100 ft (1646 × 30.5 m), paved

Time
Time Zone:UTC-8 (DST-7)
Local Time:

Weather
METAR:KRAL 111453Z 03006KT 10SM OVC200 13/M09 A3020 RMK AO2 SLP214 T01331094 53007

Related Locations
Nearby:
Farthest:ZSE: 11460 mi / 18444 km
St-Pierre (St-Pierre de la Réunion) [Pierrefonds], RE

Find:

   beyond  
but within

Other Information
Maps:
NOTAMs:
Links:
Sources:

  
flag of United States
flag of California
  

Airport Diagram

Airport diagram for RAL

Airport diagram PDF

Sectional Chart

Flight Planning
at skyvector.com

Satellite Image

Google Maps Satellite view

 

Copyright © 2004-2017 Karl L. Swartz. All rights reserved.
The Great Circle Mapper name and logo are trademarks of the Great Circle Mapper.
All other trademarks mentioned herein belong to their respective owners.
Please see credits for attibutions and further copyright information.

  Follow gcmap on Facebook Follow gcmap on Twitter Follow gcmap on Google+ GCmap on LinkedIn

hCard Microformat

Geo Microformat